createdAt,value
2023-03-20T00:01:15.765Z,12.20
2023-03-20T00:03:42.814Z,12.30
2023-03-20T00:06:35.986Z,12.40
2023-03-20T00:09:07.293Z,12.50
2023-03-20T00:11:41.170Z,12.60
2023-03-20T00:14:10.973Z,12.70
2023-03-20T00:16:43.396Z,12.80
2023-03-20T00:19:18.769Z,12.80
2023-03-20T00:21:46.592Z,12.90
2023-03-20T00:24:14.246Z,12.90
2023-03-20T00:26:42.015Z,13.00
2023-03-20T00:29:26.903Z,12.90
2023-03-20T00:31:54.742Z,12.80
2023-03-20T00:34:27.030Z,12.60
2023-03-20T00:36:54.063Z,12.60
2023-03-20T00:39:21.260Z,12.50
2023-03-20T00:41:55.996Z,12.50
2023-03-20T00:44:27.633Z,12.50
2023-03-20T00:47:03.590Z,12.40
2023-03-20T00:49:33.012Z,12.30
2023-03-20T00:52:01.417Z,12.30
2023-03-20T00:54:28.801Z,12.30
2023-03-20T00:57:03.026Z,12.30
2023-03-20T00:59:39.837Z,12.20
2023-03-20T01:02:06.958Z,12.20
2023-03-20T01:04:40.663Z,12.20
2023-03-20T01:07:16.257Z,12.20
2023-03-20T01:09:42.992Z,12.20
2023-03-20T01:12:12.276Z,12.20
2023-03-20T01:14:39.091Z,12.20
2023-03-20T01:17:05.937Z,12.20
2023-03-20T01:19:32.761Z,12.20
2023-03-20T01:21:59.440Z,12.20
2023-03-20T01:24:26.164Z,12.20
2023-03-20T01:26:54.724Z,12.10
2023-03-20T01:29:27.585Z,12.00
2023-03-20T01:31:54.920Z,11.90
2023-03-20T01:34:24.365Z,11.80
2023-03-20T01:36:56.701Z,11.70
2023-03-20T01:39:36.325Z,11.70
2023-03-20T01:42:03.526Z,11.80
2023-03-20T01:44:32.710Z,11.80
2023-03-20T01:47:01.292Z,11.70
2023-03-20T01:49:28.601Z,11.80
2023-03-20T01:51:57.092Z,11.80
2023-03-20T01:54:31.337Z,11.70
2023-03-20T01:57:09.443Z,11.70
2023-03-20T01:59:42.545Z,11.60
2023-03-20T02:02:11.092Z,11.60
2023-03-20T02:04:42.894Z,11.50
2023-03-20T02:07:12.566Z,11.50
2023-03-20T02:09:39.157Z,11.50
2023-03-20T02:12:06.668Z,11.60
2023-03-20T02:14:33.558Z,11.60
2023-03-20T02:17:00.398Z,11.70
2023-03-20T02:19:50.237Z,11.70
2023-03-20T02:22:35.389Z,11.70
2023-03-20T02:25:15.773Z,11.80
2023-03-20T02:28:22.517Z,11.90
2023-03-20T02:31:06.721Z,11.80
2023-03-20T02:34:10.973Z,11.90
2023-03-20T02:37:15.565Z,12.00
2023-03-20T02:39:54.050Z,12.00
2023-03-20T02:42:49.822Z,12.00
2023-03-20T02:45:19.695Z,12.00
2023-03-20T02:47:57.351Z,11.90
2023-03-20T02:50:41.239Z,11.90
2023-03-20T02:53:39.785Z,11.80
2023-03-20T02:56:25.052Z,11.60
2023-03-20T02:59:02.293Z,11.40
2023-03-20T03:01:41.479Z,11.30
2023-03-20T03:04:34.108Z,11.10
2023-03-20T03:07:03.818Z,11.00
2023-03-20T03:10:02.817Z,11.00
2023-03-20T03:12:34.122Z,11.00
2023-03-20T03:15:04.780Z,11.00
2023-03-20T03:17:35.272Z,10.90
2023-03-20T03:20:14.523Z,11.00
2023-03-20T03:22:41.226Z,11.10
2023-03-20T03:25:12.323Z,11.20
2023-03-20T03:27:42.832Z,11.30
2023-03-20T03:30:17.714Z,11.30
2023-03-20T03:32:51.077Z,11.30
2023-03-20T03:35:21.249Z,11.20
2023-03-20T03:38:20.283Z,11.10
2023-03-20T03:40:55.896Z,11.10
2023-03-20T03:43:39.977Z,11.10
2023-03-20T03:46:15.351Z,11.20
2023-03-20T03:48:52.444Z,11.30
2023-03-20T03:51:23.883Z,11.20
2023-03-20T03:53:58.682Z,10.90
2023-03-20T03:56:28.159Z,10.80
2023-03-20T03:59:00.311Z,10.90
2023-03-20T04:01:27.640Z,10.90
2023-03-20T04:03:58.302Z,11.00
2023-03-20T04:06:27.061Z,11.10
2023-03-20T04:08:53.702Z,11.20
2023-03-20T04:11:22.805Z,11.10
2023-03-20T04:13:51.612Z,10.80
2023-03-20T04:16:23.312Z,10.80
2023-03-20T04:18:50.924Z,10.80
2023-03-20T04:21:18.566Z,10.70
2023-03-20T04:23:45.734Z,10.40
2023-03-20T04:26:12.685Z,10.30
2023-03-20T04:28:39.357Z,10.10
2023-03-20T04:31:06.506Z,10.00
2023-03-20T04:33:33.183Z,9.80
2023-03-20T04:36:00.450Z,9.80
2023-03-20T04:38:27.219Z,9.80
2023-03-20T04:40:53.931Z,9.80
2023-03-20T04:43:20.720Z,9.90
2023-03-20T04:45:47.457Z,10.10
2023-03-20T04:48:14.416Z,10.20
2023-03-20T04:50:41.249Z,10.40
2023-03-20T04:53:07.893Z,10.60
2023-03-20T04:55:34.820Z,10.80
2023-03-20T04:58:01.561Z,10.80
2023-03-20T05:00:28.319Z,10.90
2023-03-20T05:02:55.146Z,10.70
2023-03-20T05:05:22.373Z,10.30
2023-03-20T05:07:49.492Z,9.90
2023-03-20T05:10:16.468Z,9.50
2023-03-20T05:12:43.176Z,9.20
2023-03-20T05:15:10.255Z,9.10
2023-03-20T05:17:37.021Z,9.20
2023-03-20T05:20:05.141Z,9.30
2023-03-20T05:22:31.738Z,9.50
2023-03-20T05:24:58.347Z,9.50
2023-03-20T05:27:25.012Z,9.60
2023-03-20T05:29:51.729Z,9.70
2023-03-20T05:32:18.423Z,9.80
2023-03-20T05:34:45.053Z,9.70
2023-03-20T05:37:11.729Z,9.80
2023-03-20T05:39:38.351Z,9.80
2023-03-20T05:42:05.113Z,9.80
2023-03-20T05:44:32.125Z,9.90
2023-03-20T05:46:58.804Z,10.00
2023-03-20T05:49:25.431Z,10.00
2023-03-20T05:51:52.085Z,10.20
2023-03-20T05:54:18.745Z,10.30
2023-03-20T05:56:45.382Z,10.40
2023-03-20T05:59:12.558Z,10.40
2023-03-20T06:01:39.191Z,10.40
2023-03-20T06:04:06.392Z,10.40
2023-03-20T06:06:35.244Z,10.30
2023-03-20T06:09:02.691Z,10.40
2023-03-20T06:11:29.322Z,10.30
2023-03-20T06:13:58.117Z,10.30
2023-03-20T06:16:26.877Z,10.20
2023-03-20T06:18:53.549Z,10.20
2023-03-20T06:21:20.198Z,10.30
2023-03-20T06:23:46.857Z,10.20
2023-03-20T06:26:13.614Z,10.30
2023-03-20T06:28:40.238Z,10.30
2023-03-20T06:31:07.601Z,10.40
2023-03-20T06:33:34.261Z,10.30
2023-03-20T06:36:01.092Z,10.30
2023-03-20T06:38:28.146Z,10.30
2023-03-20T06:40:54.853Z,10.20
2023-03-20T06:43:22.010Z,10.30
2023-03-20T06:45:48.643Z,10.30
2023-03-20T06:48:16.528Z,10.30
2023-03-20T06:50:43.138Z,10.20
2023-03-20T06:53:09.786Z,10.20
2023-03-20T06:55:37.296Z,10.20
2023-03-20T06:58:04.059Z,10.20
2023-03-20T07:00:30.722Z,10.10
2023-03-20T07:02:57.442Z,10.10
2023-03-20T07:05:24.474Z,10.10
2023-03-20T07:07:51.785Z,10.10
2023-03-20T07:10:19.603Z,10.00
2023-03-20T07:12:46.238Z,10.10
2023-03-20T07:15:12.917Z,10.20
2023-03-20T07:17:39.570Z,10.20
2023-03-20T07:20:08.494Z,10.30
2023-03-20T07:22:35.351Z,10.30
2023-03-20T07:25:02.343Z,10.40
2023-03-20T07:27:29.017Z,10.50
2023-03-20T07:29:55.643Z,10.60
2023-03-20T07:32:22.600Z,10.80
2023-03-20T07:34:50.199Z,10.90
2023-03-20T07:37:17.194Z,10.90
2023-03-20T07:39:43.863Z,11.00
2023-03-20T07:42:10.646Z,11.10
2023-03-20T07:44:37.520Z,11.20
2023-03-20T07:47:05.977Z,11.20
2023-03-20T07:49:33.137Z,11.30
2023-03-20T07:52:00.977Z,11.10
2023-03-20T07:54:27.735Z,11.10
2023-03-20T07:56:54.471Z,11.10
2023-03-20T07:59:21.262Z,11.10
2023-03-20T08:01:47.883Z,11.00
2023-03-20T08:04:14.658Z,10.90
2023-03-20T08:06:41.530Z,10.80
2023-03-20T08:09:08.466Z,10.70
2023-03-20T08:11:35.140Z,10.60
2023-03-20T08:14:01.782Z,10.30
2023-03-20T08:16:28.663Z,10.30
2023-03-20T08:19:00.968Z,10.30
2023-03-20T08:21:29.549Z,10.40
2023-03-20T08:23:56.567Z,10.50
2023-03-20T08:26:24.461Z,10.60
2023-03-20T08:28:52.475Z,10.80
2023-03-20T08:31:19.524Z,10.80
2023-03-20T08:33:46.838Z,10.80
2023-03-20T08:36:19.902Z,10.90
2023-03-20T08:38:48.419Z,11.00
2023-03-20T08:41:15.303Z,11.00
2023-03-20T08:43:42.023Z,11.00
2023-03-20T08:46:08.800Z,10.90
2023-03-20T08:48:36.114Z,10.90
2023-03-20T08:51:03.070Z,11.00
2023-03-20T08:53:29.800Z,11.00
2023-03-20T08:55:56.936Z,11.10
2023-03-20T08:58:23.794Z,11.30
2023-03-20T09:00:50.579Z,11.30
2023-03-20T09:03:19.869Z,11.30
2023-03-20T09:05:48.804Z,11.30
2023-03-20T09:08:16.391Z,11.30
2023-03-20T09:10:43.318Z,11.40
2023-03-20T09:13:26.297Z,11.40
2023-03-20T09:15:55.566Z,11.40
2023-03-20T09:18:22.762Z,11.30
2023-03-20T09:20:49.521Z,11.30
2023-03-20T09:23:16.495Z,11.20
2023-03-20T09:25:43.268Z,11.20
2023-03-20T09:28:10.199Z,11.20
2023-03-20T09:30:37.248Z,11.30
2023-03-20T09:33:04.219Z,11.30
2023-03-20T09:35:31.281Z,11.30
2023-03-20T09:37:58.009Z,11.40
2023-03-20T09:40:30.545Z,11.40
2023-03-20T09:43:25.152Z,11.50
2023-03-20T09:46:22.431Z,11.50
2023-03-20T09:48:54.759Z,11.60
2023-03-20T09:51:39.960Z,11.60
2023-03-20T09:54:22.149Z,11.50
2023-03-20T09:56:51.174Z,11.40
2023-03-20T09:59:19.445Z,11.50
2023-03-20T10:01:51.668Z,11.40
2023-03-20T10:04:18.773Z,11.30
2023-03-20T10:06:46.637Z,11.20
2023-03-20T10:09:21.698Z,11.10
2023-03-20T10:11:55.142Z,11.10
2023-03-20T10:14:33.532Z,11.10
2023-03-20T10:17:38.302Z,11.20
2023-03-20T10:20:30.021Z,11.20
2023-03-20T10:23:05.382Z,11.20
2023-03-20T10:25:37.780Z,11.20
2023-03-20T10:28:24.632Z,11.10
2023-03-20T10:31:28.953Z,11.30
2023-03-20T10:34:16.618Z,11.40
2023-03-20T10:37:33.623Z,11.50
2023-03-20T10:40:27.379Z,11.60
2023-03-20T10:43:00.001Z,11.60
2023-03-20T10:45:44.201Z,11.70
2023-03-20T10:48:31.142Z,11.80
2023-03-20T10:51:02.059Z,11.90
2023-03-20T10:54:02.468Z,12.00
2023-03-20T10:56:44.031Z,12.00
2023-03-20T10:59:25.161Z,12.10
2023-03-20T11:01:52.181Z,12.20
2023-03-20T11:04:19.203Z,12.10
2023-03-20T11:07:03.851Z,12.00
2023-03-20T11:09:32.478Z,11.90
2023-03-20T11:12:03.626Z,11.80
2023-03-20T11:14:39.231Z,11.90
2023-03-20T11:17:06.756Z,12.00
2023-03-20T11:19:39.493Z,11.90
2023-03-20T11:22:26.172Z,11.80
2023-03-20T11:24:55.591Z,11.80
2023-03-20T11:27:27.986Z,11.80
2023-03-20T11:29:56.731Z,11.90
2023-03-20T11:32:26.311Z,11.90
2023-03-20T11:34:57.309Z,12.00
2023-03-20T11:37:25.890Z,11.90
2023-03-20T11:40:20.782Z,12.00
2023-03-20T11:43:01.111Z,12.10
2023-03-20T11:45:35.235Z,12.10
2023-03-20T11:48:04.064Z,12.30
2023-03-20T11:50:41.881Z,12.40
2023-03-20T11:53:24.533Z,12.40
2023-03-20T11:56:05.969Z,12.40
2023-03-20T11:58:34.663Z,12.40
2023-03-20T12:01:02.980Z,12.40
2023-03-20T12:03:55.514Z,12.40
2023-03-20T12:06:27.809Z,12.40
2023-03-20T12:09:02.333Z,12.40
2023-03-20T12:11:42.641Z,12.50
2023-03-20T12:14:25.611Z,12.50
2023-03-20T12:17:15.502Z,12.60
2023-03-20T12:19:44.060Z,12.70
2023-03-20T12:22:35.772Z,12.80
2023-03-20T12:25:25.163Z,12.90
2023-03-20T12:28:20.776Z,13.00
2023-03-20T12:31:17.576Z,13.10
2023-03-20T12:33:57.210Z,13.20
2023-03-20T12:36:34.216Z,13.10
2023-03-20T12:39:04.376Z,13.20
2023-03-20T12:41:41.171Z,13.20
2023-03-20T12:44:23.251Z,13.10
2023-03-20T12:47:27.406Z,13.10
2023-03-20T12:50:02.166Z,13.00
2023-03-20T12:52:34.786Z,13.00
2023-03-20T12:55:22.534Z,13.00
2023-03-20T12:58:06.211Z,12.90
2023-03-20T13:00:59.316Z,12.90
2023-03-20T13:03:39.022Z,12.80
2023-03-20T13:06:25.646Z,12.70
2023-03-20T13:09:13.886Z,12.60
2023-03-20T13:11:49.328Z,12.60
2023-03-20T13:14:38.352Z,12.50
2023-03-20T13:17:12.017Z,12.50
2023-03-20T13:19:45.818Z,12.60
2023-03-20T13:22:46.941Z,12.50
2023-03-20T13:25:43.294Z,12.50
2023-03-20T13:28:18.336Z,12.60
2023-03-20T13:31:08.606Z,12.50
2023-03-20T13:34:04.442Z,12.50
2023-03-20T13:36:49.877Z,12.50
2023-03-20T13:39:41.126Z,12.60
2023-03-20T13:42:14.720Z,12.70
2023-03-20T13:44:43.730Z,12.70
2023-03-20T13:47:18.515Z,12.70
2023-03-20T13:49:50.986Z,12.80
2023-03-20T13:52:24.106Z,12.80
2023-03-20T13:55:14.088Z,12.80
2023-03-20T13:58:07.032Z,12.80
2023-03-20T14:00:54.925Z,12.90
2023-03-20T14:03:29.099Z,12.90
2023-03-20T14:05:56.317Z,12.90
2023-03-20T14:08:38.302Z,12.90
2023-03-20T14:11:11.067Z,12.90
2023-03-20T14:13:38.044Z,12.90
2023-03-20T14:16:09.278Z,13.10
2023-03-20T14:18:36.474Z,12.90
2023-03-20T14:21:10.902Z,12.90
2023-03-20T14:23:49.159Z,13.00
2023-03-20T14:26:27.187Z,13.10
2023-03-20T14:28:58.272Z,13.00
2023-03-20T14:31:30.700Z,12.90
2023-03-20T14:34:13.239Z,12.80
2023-03-20T14:36:56.081Z,12.80
2023-03-20T14:40:04.074Z,12.80
2023-03-20T14:43:15.016Z,12.80
2023-03-20T14:45:43.181Z,12.80
2023-03-20T14:48:24.649Z,12.70
2023-03-20T14:51:23.236Z,12.70
2023-03-20T14:54:21.639Z,12.70
2023-03-20T14:56:53.037Z,12.70
2023-03-20T14:59:24.127Z,12.60
2023-03-20T15:01:57.882Z,12.50
2023-03-20T15:04:36.667Z,12.50
2023-03-20T15:07:21.579Z,12.40
2023-03-20T15:09:51.594Z,12.50
2023-03-20T15:12:23.524Z,12.50
2023-03-20T15:14:56.296Z,12.50
2023-03-20T15:17:28.541Z,12.50
2023-03-20T15:20:23.900Z,12.60
2023-03-20T15:22:57.624Z,12.50
2023-03-20T15:25:41.066Z,12.50
2023-03-20T15:28:11.858Z,12.50
2023-03-20T15:30:39.917Z,12.40
2023-03-20T15:33:12.149Z,12.40
2023-03-20T15:35:39.089Z,12.40
2023-03-20T15:38:07.621Z,12.40
2023-03-20T15:40:50.154Z,12.40
2023-03-20T15:43:24.299Z,12.40
2023-03-20T15:46:02.806Z,12.40
2023-03-20T15:48:33.357Z,12.40
2023-03-20T15:51:04.955Z,12.30
2023-03-20T15:53:33.601Z,12.30
2023-03-20T15:56:18.387Z,12.30
2023-03-20T15:58:48.968Z,12.20
2023-03-20T16:01:21.757Z,12.10
2023-03-20T16:03:48.888Z,12.10
2023-03-20T16:06:21.738Z,12.10
2023-03-20T16:09:00.258Z,12.10
2023-03-20T16:11:36.619Z,12.00
2023-03-20T16:14:05.059Z,12.00
2023-03-20T16:16:37.188Z,11.90
2023-03-20T16:19:06.181Z,11.80
2023-03-20T16:21:40.652Z,11.90
2023-03-20T16:24:14.876Z,11.90
2023-03-20T16:26:45.894Z,11.90
2023-03-20T16:29:16.637Z,11.90
2023-03-20T16:31:56.269Z,12.00
2023-03-20T16:34:26.953Z,12.00
2023-03-20T16:36:57.207Z,12.10
2023-03-20T16:39:27.116Z,12.00
2023-03-20T16:42:23.728Z,12.00
2023-03-20T16:44:56.094Z,12.00
2023-03-20T16:47:36.078Z,12.10
2023-03-20T16:50:22.074Z,12.10
2023-03-20T16:52:58.080Z,12.10
2023-03-20T16:55:29.292Z,12.00
2023-03-20T16:58:00.510Z,12.00
2023-03-20T17:00:33.702Z,11.90
2023-03-20T17:03:18.716Z,11.90
2023-03-20T17:05:58.664Z,11.80
2023-03-20T17:08:40.579Z,11.70
2023-03-20T17:11:14.148Z,11.70
2023-03-20T17:13:42.060Z,11.80
2023-03-20T17:16:19.324Z,11.80
2023-03-20T17:18:47.659Z,11.80
2023-03-20T17:21:14.743Z,11.80
2023-03-20T17:23:41.367Z,11.80
2023-03-20T17:26:12.090Z,11.80
2023-03-20T17:28:39.194Z,11.70
2023-03-20T17:31:06.387Z,11.70
2023-03-20T17:33:33.662Z,11.70
2023-03-20T17:36:00.935Z,11.70
2023-03-20T17:38:27.628Z,11.70
2023-03-20T17:40:54.283Z,11.70
2023-03-20T17:43:21.039Z,11.70
2023-03-20T17:45:47.792Z,11.70
2023-03-20T17:48:20.902Z,11.70
2023-03-20T17:50:50.809Z,11.60
2023-03-20T17:53:29.706Z,11.60
2023-03-20T17:55:56.439Z,11.60
2023-03-20T17:58:24.409Z,11.50
2023-03-20T18:00:52.199Z,11.50
2023-03-20T18:03:19.867Z,11.60
2023-03-20T18:05:49.141Z,11.60
2023-03-20T18:08:21.109Z,11.50
2023-03-20T18:10:52.813Z,11.50
2023-03-20T18:13:21.213Z,11.60
2023-03-20T18:15:50.148Z,11.60
2023-03-20T18:18:17.227Z,11.70
2023-03-20T18:20:43.932Z,11.80
2023-03-20T18:23:12.764Z,11.90
2023-03-20T18:25:39.757Z,12.00
2023-03-20T18:28:13.323Z,12.00
2023-03-20T18:30:43.969Z,12.00
2023-03-20T18:33:10.902Z,12.10
2023-03-20T18:35:38.008Z,12.10
2023-03-20T18:38:05.181Z,12.10
2023-03-20T18:40:37.091Z,12.10
2023-03-20T18:43:04.016Z,12.10
2023-03-20T18:45:32.101Z,12.10
2023-03-20T18:47:59.404Z,12.10
2023-03-20T18:50:31.737Z,12.00
2023-03-20T18:52:59.858Z,12.00
2023-03-20T18:55:28.861Z,12.00
2023-03-20T18:57:56.747Z,12.00
2023-03-20T19:00:23.784Z,12.00
2023-03-20T19:02:53.029Z,12.00
2023-03-20T19:05:20.830Z,12.00
2023-03-20T19:07:48.864Z,12.00
2023-03-20T19:10:27.882Z,12.00
2023-03-20T19:12:55.845Z,12.00
2023-03-20T19:15:24.856Z,11.90
2023-03-20T19:17:52.350Z,11.90
2023-03-20T19:20:34.209Z,11.90
2023-03-20T19:23:02.892Z,11.90
2023-03-20T19:25:30.558Z,11.80
2023-03-20T19:27:57.714Z,11.80
2023-03-20T19:30:51.236Z,11.70
2023-03-20T19:33:18.182Z,11.60
2023-03-20T19:36:02.230Z,11.60
2023-03-20T19:38:33.063Z,11.50
2023-03-20T19:41:00.282Z,11.30
2023-03-20T19:43:29.001Z,11.40
2023-03-20T19:45:58.738Z,11.30
2023-03-20T19:48:43.349Z,11.30
2023-03-20T19:51:21.720Z,11.20
2023-03-20T19:53:50.671Z,11.10
2023-03-20T19:56:19.640Z,11.10
2023-03-20T19:58:46.486Z,10.90
2023-03-20T20:01:21.882Z,10.90
2023-03-20T20:03:59.053Z,10.90
2023-03-20T20:06:31.113Z,10.80
2023-03-20T20:08:58.767Z,10.80
2023-03-20T20:11:25.397Z,10.80
2023-03-20T20:14:09.383Z,10.90
2023-03-20T20:16:39.947Z,10.90
2023-03-20T20:19:07.325Z,10.80
2023-03-20T20:24:21.657Z,10.70
2023-03-20T20:26:59.614Z,10.70
2023-03-20T20:29:29.948Z,10.60
2023-03-20T20:31:56.647Z,10.50
2023-03-20T20:39:57.932Z,10.40
2023-03-20T20:42:24.562Z,10.50
2023-03-20T20:44:51.168Z,10.50
2023-03-20T20:47:18.501Z,10.50
2023-03-20T20:49:48.006Z,10.40
2023-03-20T20:52:15.702Z,10.40
2023-03-20T20:54:42.392Z,10.40
2023-03-20T20:57:10.723Z,10.50
2023-03-20T20:59:38.399Z,10.40
2023-03-20T21:02:11.296Z,10.30
2023-03-20T21:04:42.391Z,10.40
2023-03-20T21:07:13.167Z,10.40
2023-03-20T21:09:40.758Z,10.40
2023-03-20T21:12:10.265Z,10.30
2023-03-20T21:14:38.785Z,10.30
2023-03-20T21:17:06.098Z,10.30
2023-03-20T21:19:38.853Z,10.30
2023-03-20T21:22:07.668Z,10.30
2023-03-20T21:24:35.191Z,10.30
2023-03-20T21:27:08.013Z,10.30
2023-03-20T21:29:34.890Z,10.30
2023-03-20T21:32:05.808Z,10.30
2023-03-20T21:34:32.761Z,10.30
2023-03-20T21:37:00.066Z,10.20
2023-03-20T21:39:30.288Z,10.20
2023-03-20T21:41:58.218Z,10.20
2023-03-20T21:45:08.209Z,10.20
2023-03-20T21:48:09.219Z,10.20
2023-03-20T21:50:41.872Z,10.20
2023-03-20T21:53:17.915Z,10.30
2023-03-20T22:01:58.374Z,10.30
2023-03-20T22:04:54.957Z,10.30
2023-03-20T22:07:32.737Z,10.40
2023-03-20T22:18:21.508Z,10.20
2023-03-20T22:21:29.989Z,10.30
2023-03-20T22:24:05.768Z,10.30
2023-03-20T22:29:39.363Z,10.30
2023-03-20T22:32:40.204Z,10.30
2023-03-20T22:40:53.451Z,10.30
2023-03-20T22:45:52.676Z,10.40
2023-03-20T22:48:26.434Z,10.50
2023-03-20T22:50:53.419Z,10.50
2023-03-20T22:53:20.146Z,10.60
2023-03-20T22:55:46.868Z,10.50
2023-03-20T22:58:14.863Z,10.50
2023-03-20T23:00:43.000Z,10.50
2023-03-20T23:03:22.293Z,10.40
2023-03-20T23:05:56.831Z,10.20
2023-03-20T23:08:24.766Z,10.20
2023-03-20T23:10:52.062Z,10.10
2023-03-20T23:13:20.370Z,10.00
2023-03-20T23:15:48.345Z,10.00
2023-03-20T23:18:15.381Z,10.10
2023-03-20T23:20:42.352Z,10.10
2023-03-20T23:23:09.589Z,10.10
2023-03-20T23:25:39.632Z,10.10
2023-03-20T23:28:08.759Z,10.10
2023-03-20T23:30:46.706Z,10.10
2023-03-20T23:33:18.366Z,10.10
2023-03-20T23:35:45.176Z,10.10
2023-03-20T23:38:11.944Z,10.10
2023-03-20T23:40:38.899Z,10.20
2023-03-20T23:43:06.017Z,10.00
2023-03-20T23:45:32.659Z,10.00
2023-03-20T23:47:59.403Z,10.00
2023-03-20T23:50:34.331Z,10.00
2023-03-20T23:53:19.489Z,10.00
2023-03-20T23:55:48.135Z,10.00
2023-03-20T23:58:15.821Z,10.00
